Time;durP1;ratioP1;P1;durP2;ratioP2;P2;SDS_P1;SDS_P2;PMS_P1;PMS_P2;Temp;Humidity;BMP_temperature;BMP_pressure;BME280_temperature;BME280_humidity;BME280_pressure;Samples;Min_cycle;Max_cycle;Signal;HPM_P1;HPM_P2
2023/10/26 00:00:38;;;;;;;1.60;0.90;;;16.30;63.90;;;;;;5066946;28;20619;-51
2023/10/26 00:03:04;;;;;;;2.20;0.87;;;16.30;63.90;;;;;;5068082;28;20190;-55
2023/10/26 00:05:29;;;;;;;1.47;0.80;;;16.20;63.90;;;;;;5067878;28;20184;-51
2023/10/26 00:07:55;;;;;;;1.73;0.87;;;16.20;63.80;;;;;;5061408;28;20192;-50
2023/10/26 00:10:20;;;;;;;1.17;0.77;;;16.30;64.00;;;;;;5069498;28;20183;-53
2023/10/26 00:12:46;;;;;;;1.53;0.70;;;16.30;63.90;;;;;;5065763;28;20192;-50
2023/10/26 00:15:12;;;;;;;1.00;0.83;;;16.30;64.00;;;;;;5065743;28;20203;-49
2023/10/26 00:17:38;;;;;;;0.93;0.83;;;16.40;63.80;;;;;;5056109;28;20191;-50
2023/10/26 00:20:08;;;;;;;2.10;0.77;;;16.40;63.90;;;;;;5057544;28;20242;-51
2023/10/26 00:22:33;;;;;;;1.20;0.70;;;16.30;64.30;;;;;;5064804;28;20527;-51
2023/10/26 00:24:59;;;;;;;1.70;0.80;;;16.30;64.10;;;;;;5065243;28;21071;-53
2023/10/26 00:27:24;;;;;;;0.83;0.77;;;16.30;64.00;;;;;;5060836;28;20581;-53
2023/10/26 00:29:50;;;;;;;0.70;0.70;;;16.30;64.30;;;;;;5065738;28;20207;-49
2023/10/26 00:32:15;;;;;;;1.60;0.80;;;16.40;64.00;;;;;;5065030;28;20706;-50
2023/10/26 00:34:42;;;;;;;1.07;0.97;;;16.30;64.20;;;;;;5067596;28;20570;-47
2023/10/26 00:37:07;;;;;;;0.80;0.80;;;16.50;63.90;;;;;;5066312;28;20194;-54
2023/10/26 00:39:34;;;;;;;1.53;0.90;;;16.60;63.50;;;;;;5063010;28;20489;-49
2023/10/26 00:41:59;;;;;;;0.93;0.83;;;16.60;63.50;;;;;;5069585;28;20199;-48
2023/10/26 00:44:25;;;;;;;1.30;0.80;;;16.60;63.50;;;;;;5069349;28;20426;-54
2023/10/26 00:46:52;;;;;;;1.10;1.00;;;16.40;63.50;;;;;;5068737;28;20214;-53
2023/10/26 00:49:18;;;;;;;1.13;1.00;;;16.50;63.80;;;;;;5062387;28;20214;-50
2023/10/26 00:51:57;;;;;;;1.03;0.93;;;16.50;63.50;;;;;;5064701;28;20865;-52
2023/10/26 00:54:24;;;;;;;2.33;1.10;;;16.50;62.90;;;;;;5068756;28;20458;-53
2023/10/26 00:56:50;;;;;;;1.37;0.90;;;16.50;63.20;;;;;;5066817;28;20938;-52
2023/10/26 00:59:19;;;;;;;2.13;1.00;;;16.50;63.10;;;;;;5066377;28;20478;-51
2023/10/26 01:01:47;;;;;;;0.73;0.73;;;16.70;63.10;;;;;;5062318;28;20989;-54
2023/10/26 01:04:14;;;;;;;1.00;0.90;;;16.90;62.30;;;;;;5063936;28;20554;-54
2023/10/26 01:06:40;;;;;;;1.53;1.20;;;16.90;61.60;;;;;;5059144;28;20897;-48
2023/10/26 01:09:06;;;;;;;1.10;1.00;;;17.00;61.20;;;;;;5070721;28;20461;-48
2023/10/26 01:11:32;;;;;;;0.93;0.87;;;17.00;61.20;;;;;;5062382;28;20446;-51
2023/10/26 01:13:58;;;;;;;1.17;1.07;;;17.10;61.20;;;;;;5064046;28;20770;-54
2023/10/26 01:16:24;;;;;;;1.10;0.83;;;17.10;61.30;;;;;;5060460;28;20516;-50
2023/10/26 01:18:49;;;;;;;2.07;1.50;;;17.20;60.90;;;;;;5067124;28;20505;-53
2023/10/26 01:21:15;;;;;;;1.63;1.00;;;17.20;60.80;;;;;;5070337;28;20824;-49
2023/10/26 01:23:40;;;;;;;1.00;0.80;;;17.30;61.00;;;;;;5067524;28;20245;-53
2023/10/26 01:26:06;;;;;;;1.23;0.87;;;17.20;60.50;;;;;;5063694;28;20188;-48
2023/10/26 01:28:31;;;;;;;2.07;0.90;;;17.10;61.00;;;;;;5061660;28;20713;-50
2023/10/26 01:30:58;;;;;;;1.00;0.90;;;17.10;61.10;;;;;;5068034;28;20199;-49
2023/10/26 01:33:23;;;;;;;1.67;1.13;;;17.20;61.10;;;;;;5066705;28;20198;-50
2023/10/26 01:35:49;;;;;;;4.00;0.90;;;17.20;61.10;;;;;;5065679;28;20525;-51
2023/10/26 01:38:15;;;;;;;1.30;1.07;;;17.20;61.00;;;;;;5061963;28;20215;-49
2023/10/26 01:40:41;;;;;;;1.30;0.80;;;17.20;61.10;;;;;;5065260;28;20184;-51
2023/10/26 01:43:06;;;;;;;2.20;0.93;;;17.20;61.10;;;;;;5059893;28;20438;-48
2023/10/26 01:45:32;;;;;;;1.23;0.90;;;17.20;61.20;;;;;;5065218;28;20188;-47
2023/10/26 01:48:02;;;;;;;1.40;0.90;;;17.10;61.20;;;;;;5066516;28;20267;-51
2023/10/26 01:50:29;;;;;;;1.70;1.13;;;17.00;61.60;;;;;;5066974;28;20200;-50
2023/10/26 01:52:55;;;;;;;1.10;1.00;;;17.00;61.70;;;;;;5067511;28;20445;-50
2023/10/26 01:55:20;;;;;;;1.80;0.87;;;16.90;62.30;;;;;;5067770;28;20533;-50
2023/10/26 01:57:46;;;;;;;1.10;0.90;;;16.90;62.30;;;;;;5064761;28;20685;-51
2023/10/26 02:00:12;;;;;;;1.33;1.23;;;16.90;62.00;;;;;;5068272;28;20215;-48
2023/10/26 02:02:37;;;;;;;1.30;0.90;;;16.80;62.00;;;;;;5065162;28;20190;-49
2023/10/26 02:05:03;;;;;;;1.37;0.97;;;16.90;62.10;;;;;;5066546;28;20429;-50
2023/10/26 02:07:29;;;;;;;1.03;0.93;;;16.90;62.00;;;;;;5064970;28;20279;-48
2023/10/26 02:09:55;;;;;;;1.23;1.10;;;16.90;61.80;;;;;;5056097;28;20216;-48
2023/10/26 02:12:21;;;;;;;1.50;0.90;;;16.90;61.60;;;;;;5057150;28;20194;-53
2023/10/26 02:14:46;;;;;;;1.30;1.20;;;16.80;61.40;;;;;;5057147;28;20525;-48
2023/10/26 02:17:12;;;;;;;3.13;0.80;;;16.80;61.40;;;;;;5059731;28;20195;-51
2023/10/26 02:19:38;;;;;;;2.20;1.00;;;16.70;61.70;;;;;;5061068;28;20932;-50
2023/10/26 02:22:04;;;;;;;0.87;0.60;;;16.70;61.60;;;;;;5062749;28;20438;-49
2023/10/26 02:24:29;;;;;;;1.80;0.90;;;16.50;61.90;;;;;;5065057;28;20241;-50
2023/10/26 02:26:55;;;;;;;1.30;1.20;;;16.20;63.00;;;;;;5060335;28;20180;-51
2023/10/26 02:29:20;;;;;;;2.00;1.23;;;16.10;63.30;;;;;;5061023;28;20294;-47
2023/10/26 02:31:46;;;;;;;1.30;1.00;;;16.10;63.40;;;;;;5061300;28;20283;-49
2023/10/26 02:34:11;;;;;;;0.80;0.80;;;16.10;63.20;;;;;;5059427;28;20188;-49
2023/10/26 02:36:37;;;;;;;3.03;1.00;;;16.10;63.20;;;;;;5065086;28;20180;-49
2023/10/26 02:39:03;;;;;;;0.97;0.97;;;16.20;62.90;;;;;;5061055;28;20223;-49
2023/10/26 02:41:29;;;;;;;1.43;0.90;;;16.40;62.70;;;;;;5067356;28;20191;-47
2023/10/26 02:43:54;;;;;;;1.30;1.20;;;16.40;62.50;;;;;;5061566;28;20430;-51
2023/10/26 02:46:20;;;;;;;2.67;1.00;;;16.50;62.00;;;;;;5061245;28;20675;-47
2023/10/26 02:48:45;;;;;;;0.90;0.90;;;16.50;61.90;;;;;;5069835;28;20675;-47
2023/10/26 02:51:11;;;;;;;2.73;0.97;;;16.60;61.70;;;;;;5065745;28;20218;-48
2023/10/26 02:53:36;;;;;;;1.70;0.70;;;16.60;62.00;;;;;;5067330;28;20647;-50
2023/10/26 02:56:02;;;;;;;1.37;0.90;;;16.60;61.80;;;;;;5060505;28;20180;-47
2023/10/26 02:58:28;;;;;;;3.27;1.30;;;16.70;61.80;;;;;;5063403;28;20219;-51
2023/10/26 03:00:54;;;;;;;1.33;1.00;;;16.70;61.90;;;;;;5066151;28;20456;-47
2023/10/26 03:03:20;;;;;;;1.13;1.03;;;16.70;61.70;;;;;;5057917;28;20261;-50
2023/10/26 03:05:45;;;;;;;2.10;1.30;;;16.60;61.80;;;;;;5065773;28;20442;-50
2023/10/26 03:08:11;;;;;;;1.50;1.00;;;16.60;62.80;;;;;;5065647;28;21084;-47
2023/10/26 03:10:37;;;;;;;2.37;0.90;;;16.50;61.90;;;;;;5063669;28;20180;-49
2023/10/26 03:13:04;;;;;;;1.83;1.03;;;16.60;61.90;;;;;;5059613;28;20927;-50
2023/10/26 03:15:30;;;;;;;1.00;0.90;;;16.50;61.80;;;;;;5061468;28;20438;-50
2023/10/26 03:17:56;;;;;;;1.27;0.90;;;16.50;61.90;;;;;;5054724;28;20411;-49
2023/10/26 03:20:21;;;;;;;4.50;1.10;;;16.50;61.90;;;;;;5063627;28;20442;-46
2023/10/26 03:22:47;;;;;;;1.30;0.83;;;16.50;61.80;;;;;;5064647;28;20189;-48
2023/10/26 03:25:13;;;;;;;2.43;0.90;;;16.40;61.90;;;;;;5068607;28;20219;-49
2023/10/26 03:27:40;;;;;;;1.07;1.00;;;16.40;62.30;;;;;;5060175;28;20616;-50
2023/10/26 03:30:07;;;;;;;1.10;0.80;;;16.30;62.30;;;;;;5059343;28;20453;-51
2023/10/26 03:32:32;;;;;;;0.93;0.93;;;16.30;62.50;;;;;;5061247;28;20810;-48
2023/10/26 03:34:59;;;;;;;1.13;1.00;;;16.40;62.30;;;;;;5060981;28;20458;-49
2023/10/26 03:37:25;;;;;;;1.17;0.80;;;16.40;62.20;;;;;;5064065;28;20210;-51
2023/10/26 03:39:50;;;;;;;1.93;1.00;;;16.40;62.10;;;;;;5067482;28;20841;-50
2023/10/26 03:42:16;;;;;;;2.03;0.83;;;16.20;62.10;;;;;;5068213;28;20694;-47
2023/10/26 03:44:41;;;;;;;1.63;1.07;;;16.20;62.60;;;;;;5062072;28;20192;-49
2023/10/26 03:47:07;;;;;;;1.07;0.97;;;16.20;62.40;;;;;;5056471;28;20541;-50
2023/10/26 03:49:34;;;;;;;1.40;0.80;;;16.20;62.70;;;;;;5062874;28;20204;-51
2023/10/26 03:52:00;;;;;;;1.13;1.00;;;16.20;62.70;;;;;;5058698;28;20176;-50
2023/10/26 03:54:25;;;;;;;4.20;1.30;;;16.10;62.80;;;;;;5061283;28;20476;-49
2023/10/26 03:56:51;;;;;;;1.03;0.90;;;16.10;62.70;;;;;;5057076;28;20533;-48
2023/10/26 03:59:16;;;;;;;1.47;1.30;;;16.00;62.80;;;;;;5066545;28;20226;-49
2023/10/26 04:01:42;;;;;;;3.17;1.13;;;16.00;62.90;;;;;;5069041;28;20188;-48
2023/10/26 04:04:07;;;;;;;2.80;1.20;;;16.00;63.00;;;;;;5069940;28;20663;-49
2023/10/26 04:06:33;;;;;;;2.20;1.20;;;15.90;62.80;;;;;;5068064;28;20666;-51
2023/10/26 04:08:58;;;;;;;4.40;3.20;;;15.90;62.80;;;;;;5070033;28;20582;-50
2023/10/26 04:11:24;;;;;;;4.23;3.90;;;16.00;62.70;;;;;;5068181;28;20643;-47
2023/10/26 04:13:51;;;;;;;4.60;4.20;;;16.00;62.50;;;;;;5069585;28;20199;-47
2023/10/26 04:16:16;;;;;;;1.83;1.70;;;16.10;62.10;;;;;;5068824;28;20429;-48
2023/10/26 04:18:42;;;;;;;2.03;1.40;;;15.90;62.20;;;;;;5068758;28;20469;-49
2023/10/26 04:21:07;;;;;;;1.90;1.10;;;15.90;62.30;;;;;;5060734;28;20244;-50
2023/10/26 04:23:33;;;;;;;1.57;1.10;;;16.00;62.00;;;;;;5058017;28;20805;-50
2023/10/26 04:25:58;;;;;;;1.17;1.07;;;16.00;61.50;;;;;;5065123;28;20226;-49
2023/10/26 04:28:24;;;;;;;4.17;1.60;;;16.10;61.00;;;;;;5056551;28;20287;-50
2023/10/26 04:30:50;;;;;;;1.27;0.90;;;16.20;60.80;;;;;;5054577;28;20216;-52
2023/10/26 04:33:16;;;;;;;1.73;1.47;;;16.30;60.60;;;;;;5064556;28;20187;-55
2023/10/26 04:35:46;;;;;;;1.23;0.90;;;16.30;60.40;;;;;;5062918;28;20279;-50
2023/10/26 04:38:11;;;;;;;1.50;1.10;;;16.30;60.30;;;;;;5064315;28;20457;-53
2023/10/26 04:40:41;;;;;;;0.80;0.80;;;16.30;60.10;;;;;;5067898;28;20499;-49
2023/10/26 04:43:07;;;;;;;2.40;0.80;;;16.40;60.00;;;;;;5068040;28;20245;-52
2023/10/26 04:45:33;;;;;;;1.73;0.97;;;16.40;60.20;;;;;;5066565;28;20929;-50
2023/10/26 04:47:59;;;;;;;2.17;1.20;;;16.40;59.90;;;;;;5057352;28;20438;-51
2023/10/26 04:50:25;;;;;;;1.63;1.00;;;16.40;59.80;;;;;;5066146;28;20978;-49
2023/10/26 04:52:51;;;;;;;0.90;0.80;;;16.40;59.60;;;;;;5061442;28;20731;-47
2023/10/26 04:55:16;;;;;;;1.40;0.80;;;16.40;59.40;;;;;;5057631;28;20466;-49
2023/10/26 04:57:42;;;;;;;3.07;1.87;;;16.20;59.10;;;;;;5058401;28;20465;-51
2023/10/26 05:00:11;;;;;;;1.60;0.97;;;16.20;59.40;;;;;;5057338;28;20216;-52
2023/10/26 05:02:41;;;;;;;1.37;1.27;;;16.20;59.50;;;;;;5055592;28;20184;-48
2023/10/26 05:05:07;;;;;;;4.83;1.83;;;16.20;59.60;;;;;;5060864;28;20426;-50
2023/10/26 05:07:33;;;;;;;3.73;1.70;;;16.20;59.70;;;;;;5064393;28;21155;-49
2023/10/26 05:09:59;;;;;;;3.63;2.67;;;16.20;59.80;;;;;;5065561;28;20548;-50
2023/10/26 05:12:25;;;;;;;3.33;2.50;;;16.30;59.90;;;;;;5064307;28;20814;-50
2023/10/26 05:14:51;;;;;;;6.47;3.00;;;16.40;59.90;;;;;;5062156;28;20438;-48
2023/10/26 05:17:16;;;;;;;4.20;2.70;;;16.50;59.80;;;;;;5064557;28;20184;-49
2023/10/26 05:19:42;;;;;;;2.50;2.00;;;16.60;60.60;;;;;;5067694;28;20230;-49
2023/10/26 05:22:07;;;;;;;1.37;1.07;;;16.70;60.40;;;;;;5066618;28;20275;-47
2023/10/26 05:24:33;;;;;;;2.67;1.40;;;16.50;58.90;;;;;;5062522;28;20198;-50
2023/10/26 05:26:58;;;;;;;1.27;1.00;;;16.50;58.80;;;;;;5062238;28;20232;-50
2023/10/26 05:29:24;;;;;;;1.90;1.00;;;16.50;58.80;;;;;;5062587;28;20207;-48
2023/10/26 05:31:49;;;;;;;3.07;1.07;;;16.40;58.70;;;;;;5064572;28;20180;-50
2023/10/26 05:34:15;;;;;;;1.73;1.00;;;16.40;58.80;;;;;;5065589;28;20527;-48
2023/10/26 05:36:41;;;;;;;2.37;1.27;;;16.30;58.90;;;;;;5064939;28;20180;-49
2023/10/26 05:39:06;;;;;;;2.10;1.00;;;16.20;59.20;;;;;;5056358;28;20699;-51
2023/10/26 05:41:33;;;;;;;3.40;1.10;;;16.10;59.30;;;;;;5060284;28;20196;-49
2023/10/26 05:43:59;;;;;;;1.37;1.10;;;16.00;59.60;;;;;;5067294;28;20644;-49
2023/10/26 05:46:25;;;;;;;1.33;1.07;;;16.10;59.70;;;;;;5062135;28;20524;-51
2023/10/26 05:48:50;;;;;;;3.80;1.20;;;16.10;59.60;;;;;;5062854;28;20454;-50
2023/10/26 05:51:16;;;;;;;1.73;1.17;;;16.10;59.80;;;;;;5062439;28;20442;-49
2023/10/26 05:53:41;;;;;;;1.63;1.50;;;16.20;59.70;;;;;;5063126;28;20641;-47
2023/10/26 05:56:07;;;;;;;2.50;1.10;;;16.30;59.70;;;;;;5062237;28;20640;-49
2023/10/26 05:58:33;;;;;;;2.97;1.20;;;16.30;59.50;;;;;;5062584;28;20300;-48
2023/10/26 06:00:59;;;;;;;1.60;1.50;;;16.30;59.70;;;;;;5065217;28;20187;-48
2023/10/26 06:03:25;;;;;;;1.60;1.37;;;16.30;59.80;;;;;;5066094;28;20211;-49
2023/10/26 06:05:51;;;;;;;2.20;1.43;;;16.40;60.00;;;;;;5055236;28;20472;-51
2023/10/26 06:08:16;;;;;;;2.30;1.90;;;16.40;60.20;;;;;;5064262;28;20219;-50
2023/10/26 06:10:42;;;;;;;2.50;1.67;;;16.40;60.20;;;;;;5066994;28;20667;-48
2023/10/26 06:13:08;;;;;;;1.67;1.20;;;16.40;60.30;;;;;;5062309;28;20172;-50
2023/10/26 06:15:34;;;;;;;5.10;1.50;;;16.30;60.50;;;;;;5065752;28;20271;-50
2023/10/26 06:18:00;;;;;;;3.67;1.73;;;16.40;60.50;;;;;;5055655;28;20272;-51
2023/10/26 06:20:27;;;;;;;3.97;2.43;;;16.40;60.70;;;;;;5059458;28;20537;-51
2023/10/26 06:22:56;;;;;;;2.13;1.93;;;16.40;60.40;;;;;;5066765;28;20224;-50
2023/10/26 06:25:23;;;;;;;3.03;2.27;;;16.50;60.60;;;;;;5068876;28;20471;-54
2023/10/26 06:27:48;;;;;;;3.60;2.73;;;16.50;60.90;;;;;;5067392;28;20434;-52
2023/10/26 06:30:15;;;;;;;2.13;1.80;;;16.50;60.90;;;;;;5068026;28;20426;-51
2023/10/26 06:32:41;;;;;;;1.80;1.63;;;16.50;60.90;;;;;;5068051;28;20180;-49
2023/10/26 06:35:08;;;;;;;2.40;2.13;;;16.60;60.80;;;;;;5068678;28;20489;-49
2023/10/26 06:37:33;;;;;;;6.43;2.87;;;16.60;60.80;;;;;;5066921;28;20545;-49
2023/10/26 06:39:59;;;;;;;3.87;2.77;;;16.70;60.90;;;;;;5068297;28;20561;-53
2023/10/26 06:42:24;;;;;;;9.10;2.83;;;16.70;61.00;;;;;;5067930;28;20222;-54
2023/10/26 06:44:50;;;;;;;2.50;1.87;;;16.70;61.00;;;;;;5068813;28;20680;-53
2023/10/26 06:47:16;;;;;;;1.60;1.40;;;16.80;61.20;;;;;;5066828;28;20605;-51
2023/10/26 06:49:42;;;;;;;1.50;1.30;;;16.70;61.20;;;;;;5063019;28;20302;-51
2023/10/26 06:52:08;;;;;;;4.70;1.97;;;16.60;61.80;;;;;;5068032;28;20192;-53
2023/10/26 06:54:33;;;;;;;4.50;3.63;;;16.70;61.80;;;;;;5068327;28;20460;-54
2023/10/26 06:56:59;;;;;;;3.10;2.80;;;16.70;61.70;;;;;;5067346;28;20208;-55
2023/10/26 06:59:25;;;;;;;2.83;1.73;;;16.80;61.90;;;;;;5068148;28;20580;-54
2023/10/26 07:01:51;;;;;;;2.70;1.63;;;16.80;62.00;;;;;;5067934;28;20662;-53
2023/10/26 07:04:16;;;;;;;1.87;1.67;;;16.80;62.20;;;;;;5068298;28;20172;-53
2023/10/26 07:06:42;;;;;;;2.00;1.50;;;16.90;62.60;;;;;;5061273;28;20937;-52
2023/10/26 07:09:07;;;;;;;2.20;1.60;;;16.90;62.80;;;;;;5068343;28;20306;-52
2023/10/26 07:11:33;;;;;;;4.43;2.00;;;17.00;63.30;;;;;;5067489;28;20196;-51
2023/10/26 07:13:59;;;;;;;2.47;1.23;;;17.00;63.10;;;;;;5068290;28;20184;-56
2023/10/26 07:16:24;;;;;;;2.97;1.70;;;17.00;62.80;;;;;;5070450;28;20187;-56
2023/10/26 07:18:50;;;;;;;2.53;1.30;;;17.00;62.50;;;;;;5072300;28;20211;-54
2023/10/26 07:21:16;;;;;;;2.33;1.40;;;16.70;62.60;;;;;;5072371;28;20204;-49
2023/10/26 07:23:42;;;;;;;2.43;1.97;;;16.50;63.20;;;;;;5066470;28;20464;-50
2023/10/26 07:26:07;;;;;;;1.43;1.33;;;16.50;63.40;;;;;;5070913;28;20180;-50
2023/10/26 07:28:33;;;;;;;1.47;1.33;;;16.70;63.30;;;;;;5071446;28;20222;-53
2023/10/26 07:30:58;;;;;;;4.30;1.77;;;16.80;63.10;;;;;;5071704;28;20192;-55
2023/10/26 07:33:24;;;;;;;6.70;2.23;;;16.90;62.90;;;;;;5071214;28;20180;-50
2023/10/26 07:35:57;;;;;;;2.73;1.77;;;16.90;62.90;;;;;;5071628;28;20259;-50
2023/10/26 07:38:26;;;;;;;4.10;2.63;;;16.80;63.20;;;;;;5070815;28;20847;-52
2023/10/26 07:40:54;;;;;;;32.33;4.20;;;16.80;63.40;;;;;;5071538;28;20460;-52
2023/10/26 07:43:20;;;;;;;39.43;6.87;;;16.80;62.90;;;;;;5070712;28;20421;-53
2023/10/26 07:45:51;;;;;;;32.63;6.10;;;16.60;63.80;;;;;;5070965;28;20483;-53
2023/10/26 07:48:17;;;;;;;11.53;3.83;;;16.50;64.60;;;;;;5070507;28;20920;-53
2023/10/26 07:50:43;;;;;;;9.10;2.80;;;16.40;65.20;;;;;;5071299;28;20416;-50
2023/10/26 07:53:08;;;;;;;7.13;2.60;;;16.30;65.30;;;;;;5070970;28;20414;-53
2023/10/26 07:55:34;;;;;;;7.87;3.00;;;16.20;65.90;;;;;;5071117;28;20200;-50
2023/10/26 07:58:00;;;;;;;16.93;4.50;;;16.10;66.30;;;;;;5070019;28;20176;-50
2023/10/26 08:00:25;;;;;;;7.73;3.90;;;16.20;66.40;;;;;;5070961;28;20610;-50
2023/10/26 08:02:51;;;;;;;27.10;7.20;;;16.00;67.20;;;;;;5070886;28;20435;-54
2023/10/26 08:05:17;;;;;;;12.70;4.00;;;16.00;68.70;;;;;;5070954;28;20204;-51
2023/10/26 08:07:44;;;;;;;3.17;2.20;;;15.90;69.50;;;;;;5068338;28;20180;-50
2023/10/26 08:10:10;;;;;;;4.23;2.90;;;15.90;69.80;;;;;;5070811;28;20200;-52
2023/10/26 08:12:35;;;;;;;3.30;2.30;;;15.90;70.20;;;;;;5070597;28;20472;-50
2023/10/26 08:15:02;;;;;;;4.47;2.40;;;16.10;69.80;;;;;;5070743;28;20184;-51
2023/10/26 08:17:28;;;;;;;3.40;2.60;;;16.40;68.90;;;;;;5069827;28;20180;-50
2023/10/26 08:19:55;;;;;;;10.07;3.97;;;16.70;68.30;;;;;;5070599;28;20485;-49
2023/10/26 08:22:23;;;;;;;3.07;2.33;;;16.80;67.40;;;;;;5067510;28;20418;-49
2023/10/26 08:24:49;;;;;;;2.80;2.00;;;16.90;67.20;;;;;;5071042;28;20431;-53
2023/10/26 08:27:14;;;;;;;2.00;1.90;;;16.90;67.20;;;;;;5069138;28;20849;-49
2023/10/26 08:29:40;;;;;;;1.80;1.60;;;16.90;67.40;;;;;;5070311;28;20323;-50
2023/10/26 08:32:05;;;;;;;1.40;1.20;;;17.00;67.00;;;;;;5070230;28;20218;-52
2023/10/26 08:34:31;;;;;;;2.57;1.97;;;17.10;66.70;;;;;;5070670;28;20217;-49
2023/10/26 08:36:59;;;;;;;2.93;1.93;;;17.10;66.10;;;;;;5069309;28;20200;-49
2023/10/26 08:39:25;;;;;;;3.33;1.97;;;17.30;66.00;;;;;;5070398;28;20218;-49
2023/10/26 08:41:50;;;;;;;4.20;2.03;;;17.40;66.80;;;;;;5070050;28;20502;-50
2023/10/26 08:44:17;;;;;;;1.60;1.50;;;17.40;65.90;;;;;;5070234;28;20215;-49
2023/10/26 08:46:44;;;;;;;1.73;1.30;;;17.50;65.00;;;;;;5064067;28;20191;-50
2023/10/26 08:49:11;;;;;;;7.07;2.20;;;17.50;64.90;;;;;;5070402;28;20446;-51
2023/10/26 08:51:37;;;;;;;14.80;3.40;;;17.60;64.70;;;;;;5069590;28;20434;-49
2023/10/26 08:54:02;;;;;;;4.13;1.90;;;17.60;64.10;;;;;;5070226;28;20494;-52
2023/10/26 08:56:28;;;;;;;5.47;2.10;;;17.60;63.40;;;;;;5069024;28;20229;-51
2023/10/26 08:58:57;;;;;;;2.23;1.10;;;17.70;63.40;;;;;;5070116;28;20302;-55
2023/10/26 09:01:23;;;;;;;1.60;1.20;;;17.70;63.00;;;;;;5069804;28;20188;-52
2023/10/26 09:03:49;;;;;;;1.70;1.20;;;17.60;62.90;;;;;;5070166;28;20434;-51
2023/10/26 09:06:15;;;;;;;3.47;1.47;;;17.30;64.60;;;;;;5069171;28;20438;-51
2023/10/26 09:08:41;;;;;;;2.03;1.30;;;17.30;65.70;;;;;;5069418;28;20196;-50
2023/10/26 09:11:22;;;;;;;3.23;1.23;;;17.50;65.80;;;;;;5069795;28;20184;-50
2023/10/26 09:13:48;;;;;;;2.13;1.10;;;17.60;66.10;;;;;;5064986;28;20471;-52
2023/10/26 09:16:13;;;;;;;2.20;1.30;;;17.60;66.10;;;;;;5068881;28;20843;-51
2023/10/26 09:18:47;;;;;;;2.80;1.60;;;17.70;66.00;;;;;;5069146;28;20231;-49
2023/10/26 09:21:14;;;;;;;1.50;1.40;;;17.60;66.50;;;;;;5069436;28;20203;-54
2023/10/26 09:23:40;;;;;;;5.77;1.83;;;17.70;66.40;;;;;;5069089;28;20450;-52
2023/10/26 09:26:08;;;;;;;2.50;1.50;;;17.90;66.20;;;;;;5068676;28;20422;-54
2023/10/26 09:28:54;;;;;;;3.17;1.80;;;17.80;66.80;;;;;;5068959;28;20464;-53
2023/10/26 09:31:20;;;;;;;2.00;1.90;;;17.40;68.20;;;;;;5069242;28;20465;-49
2023/10/26 09:33:47;;;;;;;22.60;4.90;;;17.50;68.70;;;;;;5069324;28;20422;-53
2023/10/26 09:36:15;;;;;;;8.07;2.03;;;17.60;69.10;;;;;;5068469;28;20433;-53
2023/10/26 09:38:41;;;;;;;1.93;1.40;;;17.50;69.80;;;;;;5068336;28;20489;-54
2023/10/26 09:41:11;;;;;;;42.20;6.07;;;17.60;69.30;;;;;;5069115;28;20418;-52
2023/10/26 09:43:42;;;;;;;41.87;4.80;;;17.60;69.20;;;;;;5068495;28;20926;-54
2023/10/26 09:46:08;;;;;;;9.43;2.00;;;17.60;69.30;;;;;;5068551;28;20487;-55
2023/10/26 09:48:34;;;;;;;3.40;1.90;;;17.70;70.00;;;;;;5068733;28;20457;-51
2023/10/26 09:51:00;;;;;;;7.53;2.10;;;17.70;70.40;;;;;;5069011;28;20422;-49
2023/10/26 09:53:45;;;;;;;18.10;2.20;;;17.60;70.30;;;;;;5068554;28;20420;-54
2023/10/26 09:56:19;;;;;;;4.73;1.80;;;17.40;71.40;;;;;;5068272;28;20974;-51
2023/10/26 09:58:45;;;;;;;2.40;1.40;;;17.10;73.10;;;;;;5064709;28;20503;-54
2023/10/26 10:01:34;;;;;;;1.40;1.30;;;17.30;72.50;;;;;;5068844;28;20910;-53
2023/10/26 10:04:00;;;;;;;2.80;1.30;;;17.60;72.00;;;;;;5068281;28;20909;-49
2023/10/26 10:06:48;;;;;;;2.30;1.63;;;17.60;71.40;;;;;;5067921;28;20984;-54
2023/10/26 10:09:17;;;;;;;2.00;1.27;;;17.60;71.40;;;;;;5068984;28;20488;-50
2023/10/26 10:11:42;;;;;;;2.77;1.50;;;17.60;71.10;;;;;;5063950;28;21274;-53
2023/10/26 10:14:08;;;;;;;2.20;1.80;;;17.70;71.90;;;;;;5068727;28;20426;-49
2023/10/26 10:16:33;;;;;;;7.17;2.03;;;17.60;71.90;;;;;;5067544;28;20195;-53
2023/10/26 10:19:18;;;;;;;3.20;1.60;;;17.50;72.60;;;;;;5068921;28;20809;-52
2023/10/26 10:21:44;;;;;;;1.50;1.40;;;17.50;72.70;;;;;;5066967;28;20184;-55
2023/10/26 10:24:10;;;;;;;3.30;1.53;;;17.40;73.70;;;;;;5068664;28;20848;-54
2023/10/26 10:27:07;;;;;;;1.63;1.40;;;17.40;74.20;;;;;;5067356;28;20180;-53
2023/10/26 10:29:32;;;;;;;1.40;1.30;;;17.30;74.90;;;;;;5068410;28;20203;-55
2023/10/26 10:31:58;;;;;;;2.20;1.43;;;17.40;74.40;;;;;;5068318;28;20457;-53
2023/10/26 10:34:33;;;;;;;2.40;1.30;;;17.50;74.30;;;;;;5068612;28;20188;-54
2023/10/26 10:37:12;;;;;;;1.30;1.20;;;17.60;74.20;;;;;;5067223;28;20245;-53
2023/10/26 10:39:58;;;;;;;2.10;1.30;;;17.60;73.80;;;;;;5068309;28;20505;-53
2023/10/26 10:42:24;;;;;;;2.97;1.40;;;17.60;74.00;;;;;;5065384;28;20491;-54
2023/10/26 10:44:50;;;;;;;3.20;1.67;;;17.70;74.00;;;;;;5068553;28;20921;-53
2023/10/26 10:47:16;;;;;;;1.90;1.40;;;17.80;73.80;;;;;;5067136;28;20202;-51
2023/10/26 10:49:42;;;;;;;1.90;1.70;;;17.80;73.70;;;;;;5063982;28;20450;-55
2023/10/26 10:52:13;;;;;;;3.80;2.00;;;17.80;73.90;;;;;;5072438;28;20992;-54
2023/10/26 10:54:39;;;;;;;2.47;1.97;;;17.80;74.50;;;;;;5072396;28;20630;-51
2023/10/26 10:57:05;;;;;;;2.33;2.10;;;17.80;74.20;;;;;;5071205;28;20525;-49
2023/10/26 10:59:31;;;;;;;2.30;2.10;;;17.90;74.30;;;;;;5072440;28;20273;-51
2023/10/26 11:02:11;;;;;;;1.83;1.70;;;17.90;74.30;;;;;;5071915;28;20936;-50
2023/10/26 11:04:56;;;;;;;1.80;1.70;;;17.90;74.80;;;;;;5072475;28;20271;-50
2023/10/26 11:07:30;;;;;;;2.10;1.57;;;17.90;75.00;;;;;;5069102;28;20536;-50
2023/10/26 11:10:00;;;;;;;1.57;1.10;;;18.00;74.90;;;;;;5071912;28;20449;-52
2023/10/26 11:12:26;;;;;;;2.23;1.20;;;18.00;74.60;;;;;;5071779;28;20406;-51
2023/10/26 11:14:53;;;;;;;2.33;1.50;;;18.10;74.30;;;;;;5072118;28;20485;-51
2023/10/26 11:17:20;;;;;;;2.20;2.00;;;18.10;74.10;;;;;;5070797;28;20409;-49
2023/10/26 11:19:47;;;;;;;1.70;1.60;;;18.20;74.30;;;;;;5071919;28;20884;-51
2023/10/26 11:22:14;;;;;;;1.60;1.50;;;18.20;74.30;;;;;;5071417;28;20495;-50
2023/10/26 11:24:41;;;;;;;1.67;1.57;;;18.30;74.00;;;;;;5071906;28;20948;-49
2023/10/26 11:27:13;;;;;;;1.50;1.40;;;18.30;74.00;;;;;;5070599;28;20437;-49
2023/10/26 11:29:40;;;;;;;1.70;1.27;;;18.40;74.10;;;;;;5071610;28;20438;-49
2023/10/26 11:32:18;;;;;;;2.43;1.47;;;18.50;73.90;;;;;;5071366;28;20859;-49
2023/10/26 11:35:09;;;;;;;1.37;1.27;;;18.50;73.30;;;;;;5071295;28;20429;-52
2023/10/26 11:37:41;;;;;;;1.40;1.30;;;18.60;73.40;;;;;;5070324;28;20445;-49
2023/10/26 11:40:09;;;;;;;1.90;1.40;;;18.60;73.20;;;;;;5071349;28;20521;-49
2023/10/26 11:42:48;;;;;;;1.30;1.20;;;18.70;73.40;;;;;;5071130;28;20422;-49
2023/10/26 11:45:15;;;;;;;2.00;1.90;;;18.80;73.20;;;;;;5071650;28;20586;-50
2023/10/26 11:47:52;;;;;;;3.93;1.37;;;18.80;73.10;;;;;;5070186;28;20410;-50
2023/10/26 11:50:21;;;;;;;8.50;2.13;;;18.80;72.70;;;;;;5071186;28;20412;-49
2023/10/26 11:52:47;;;;;;;10.03;1.57;;;18.90;72.10;;;;;;5071023;28;20425;-49
2023/10/26 11:55:14;;;;;;;2.40;2.03;;;18.90;71.90;;;;;;5071120;28;20450;-52
2023/10/26 11:57:40;;;;;;;1.10;1.00;;;18.90;71.90;;;;;;5070136;28;20837;-49
2023/10/26 12:00:07;;;;;;;1.40;1.30;;;18.90;71.60;;;;;;5070686;28;20473;-52
2023/10/26 12:02:34;;;;;;;9.63;2.10;;;18.90;71.60;;;;;;5070469;28;20940;-52
2023/10/26 12:04:59;;;;;;;3.47;1.60;;;18.60;71.20;;;;;;5071403;28;20410;-50
2023/10/26 12:07:25;;;;;;;1.90;1.37;;;18.10;74.10;;;;;;5070014;28;21073;-49
2023/10/26 12:09:51;;;;;;;1.60;1.50;;;18.00;77.60;;;;;;5070968;28;20207;-51
2023/10/26 12:12:16;;;;;;;3.63;1.37;;;18.20;76.60;;;;;;5070606;28;20176;-51
2023/10/26 12:14:43;;;;;;;1.37;1.27;;;18.00;76.00;;;;;;5070875;28;20659;-52
2023/10/26 12:17:09;;;;;;;1.50;1.37;;;18.10;78.10;;;;;;5069777;28;20662;-51
2023/10/26 12:19:35;;;;;;;1.37;1.27;;;18.30;78.60;;;;;;5070603;28;20573;-52
2023/10/26 12:22:00;;;;;;;3.33;1.40;;;18.50;78.50;;;;;;5070576;28;20855;-51
2023/10/26 12:24:26;;;;;;;1.80;1.70;;;18.80;79.00;;;;;;5071346;28;20426;-49
2023/10/26 12:26:58;;;;;;;1.70;1.60;;;18.90;78.60;;;;;;5069851;28;20176;-49
2023/10/26 12:29:23;;;;;;;1.50;1.37;;;18.90;76.30;;;;;;5070621;28;20235;-49
2023/10/26 12:31:49;;;;;;;1.20;1.07;;;19.00;76.60;;;;;;5070370;28;20450;-49
2023/10/26 12:34:14;;;;;;;1.57;1.23;;;19.10;74.40;;;;;;5070757;28;20188;-53
2023/10/26 12:36:40;;;;;;;2.00;1.80;;;18.90;71.80;;;;;;5069333;28;20187;-52
2023/10/26 12:39:06;;;;;;;1.60;1.50;;;18.90;74.70;;;;;;5070552;28;20215;-49
2023/10/26 12:41:31;;;;;;;2.10;1.17;;;19.00;73.90;;;;;;5069797;28;20712;-49
2023/10/26 12:43:57;;;;;;;1.73;1.30;;;19.30;74.30;;;;;;5070670;28;20218;-53